AirNav   Duncan Aviation - Near you to keep you flying
 
 1710 users online  

WT04 Silverbird Airport
Cheney, Washington, USA

GOING TO CHENEY?


FAA INFORMATION EFFECTIVE 04 NOVEMBER 2021

Location

FAA Identifier: WT04
Lat/Long: 47-31-02.0000N 117-32-03.0000W
47-31.033333N 117-32.050000W
47.5172222,-117.5341667
(estimated)
Elevation: 2418 ft. / 737 m (estimated)
From city: 3 miles NE of CHENEY, WA
Time zone: UTC -7 (UTC -8 during Standard Time)
Zip code: 99004

Airport Operations

Airport use: Private use. Permission required prior to landing
Activation date: 01/2016
Control tower: no
ARTCC: SEATTLE CENTER
FSS: SEATTLE FLIGHT SERVICE STATION
Attendance: 
Segmented circle: no

Airport Communications

WX ASOS at GEG (6 nm N): PHONE 509-742-2544
WX ASOS at SFF (13 nm NE): 120.55 (509-535-3290)

Nearby radio navigation aids

VOR radial/distance  VOR name  Freq  Var
GEGr106/4.7SPOKANE VORTAC115.5021E
COEr223/32.7COEUR D'ALENE VOR/DME108.8019E

 
NDB name  Hdg/Dist  Freq  Var  ID
DEER PARK173/27.436516EDPY -.. .--. -.--

Airport Services

Runway Information

Runway 3/21

Dimensions: 2500 x 24 ft. / 762 x 7 m
Surface: turf
RUNWAY 3  RUNWAY 21
Traffic pattern: leftleft

Airport Ownership and Management from official FAA records

Ownership: Privately-owned
Owner: DENNIS P. REED
10632 N SCOTTSDALE RD, STE 177
SCOTTSDALE, AZ 85254
Phone 509-990-5060
Manager: DENNIS P. REED
10632 N SCOTTSDALE RD, STE 177
SCOTTSDALE, AZ 85254
Phone 509-990-5060

Airport Operational Statistics

Aircraft based on the field: 9
Single engine airplanes: 6
Ultralights: 3
    

Additional Remarks

FOR CD CTC SEATTLE ARTCC AT 253-351-3694.

Instrument Procedures

There are no published instrument procedures at WT04.

Some nearby airports with instrument procedures:

KGEG - Spokane International Airport (6 nm N)
KSKA - Fairchild Air Force Base (8 nm NW)
KSFF - Felts Field Airport (13 nm NE)
KDEW - Deer Park Airport (27 nm N)
KCOE - Coeur d'Alene Airport - Pappy Boyington Field (33 nm NE)
 
Loc | Ops | Rwys | IFR | FBO | Links
Com | Nav | Svcs | Stats | Notes
Aerial photo
No photo
 
Airport distance calculator
Flying to Silverbird Airport? Find the distance to fly.

From to WT04

Sunrise and sunset
Times for 30-Nov-2021
 Local
(UTC-8)
 Zulu
(UTC)
Morning civil twilight06:4214:42
Sunrise07:1715:17
Sunset16:0100:01
Evening civil twilight16:3600:36

Current date and time
Zulu (UTC)  30-Nov-2021 19:04:27
Local (UTC-8)  30-Nov-2021 11:04:27
 
METAR
KGEG 
6nm N 
301853Z 20013G21KT 10SM FEW030 SCT065 OVC090 08/06 A3009 RMK AO2 SLP195 T00830056
KSKA 
8nm NW 
301858Z 17009KT 10SM FEW013 BKN060 BKN090 OVC110 08/08 A3008 RMK AO2A SLP198 T00780077 $
KSFF 
13nm NE 
301853Z 22006KT 10SM BKN070 OVC095 10/05 A3010 RMK AO2 SLP195 T01000050
TAF
KGEG 
6nm N 
301738Z 3018/0118 20015G21KT P6SM SCT030 OVC080 FM010000 20012G18KT P6SM VCSH FEW020 OVC050 FM010500 20017G26KT P6SM SCT025 BKN060
KSKA 
8nm NW 
301100Z 3011/0117 17010KT 9999 BKN100 QNH3007INS BECMG 3015/3016 20012G20KT 9999 BKN040 620557 QNH3007INS WND 20015G25KT AFT 3021 TEMPO 3020/3024 VCSH OVC030 BECMG 0100/0101 20012G22KT 9999 SCT010 BKN040 620805 QNH3010INS BECMG 0112/0113 21012G20KT 9999 BKN060 620904 QNH3008INS TX11/3022Z TN06/3011Z
KSFF 
13nm NE 
301738Z 3018/0118 22010G17KT P6SM FEW035 OVC080 FM302300 22010KT P6SM VCSH OVC050 FM010500 22010G20KT P6SM SCT030 OVC050
NOTAMs
Click for the latest NOTAMs
NOTAMs are issued by the DoD/FAA and will open in a separate window not controlled by AirNav.

 

 
 

Would you like to see your business listed on this page?

 If your business provides an interesting product or service to pilots, flight crews, aircraft, or users of the Silverbird Airport, you should consider listing it here.  To start the listing process, click on the button below
 
Add a business
 

Other Pages about Silverbird Airport

Update a link
 
Copyright © AirNav, LLC. All rights reserved. Privacy Policy  Contact